Beverly, MA (01915)

11:05 AM EST on February 09, 2016 (GMT -0500)
Beverly Cove | | Change Station
CLOSE
Current Station
Personal Weather Station
Location: Beverly, MA
Elevation: 51 ft
Nearby Weather Stations

Elev 51 ft 42.56 °N, 70.85 °W | Updated 3 seconds ago

Overcast
Overcast
23.7 °F
Feels Like 24 °F
N
0.0
Wind Variable Wind from North
Gusts 0.0 mph

Today
High -- | Low -- °F
--% Chance of Precip.
Yesterday
High -- | Low -- °F
Precip. -- in
Pressure 29.68 in
Visibility 10.0 miles
Clouds Overcast 2500 ft
Windchill 24 °F
Dew Point 21 °F
Humidity 88%
Rainfall 0.00 in
Snow Depth Not available.
6:48 AM 5:06 PM
New Moon, 2% visible
METAR KBVY 091553Z 33008KT 10SM OVC025 M05/M09 A2968 RMK AO2 SLP049 T10501094
Pressure 29.68 in
Visibility 10.0 miles
Clouds Overcast 2500 ft
Windchill 24 °F
Dew Point 21 °F
Humidity 88%
Rainfall 0.00 in
Snow Depth Not available.
6:48 AM 5:06 PM
New Moon, 2% visible
METAR KBVY 091553Z 33008KT 10SM OVC025 M05/M09 A2968 RMK AO2 SLP049 T10501094

10-Day Weather Forecast

Almanac

Astronomy

Feb. 09, 2016 Rise Set
Actual Time
Civil Twilight
Nautical Twilight
Astronomical Twilight
Moon
Length of Visible Light
Length of Day
Tomorrow will be .
, % of the Moon is Illuminated

Today's Extremes

State Highs State Lows

Community

WunderPhotos

Upload Photos

1,891,628 photos uploaded!

WunderBlog® & News

Nearby

Air Quality

  Air Quality AQ Index Pollutant
Not available.

Snow Depth

Station Depth Elevation

Earthquake Activity

City Distance Mag. Time & Date
Minimum magnitude displayed is 2.5.

Coastal Water Temperatures

Place Temperature

Stations

Nearby Weather Stations

Station Location Temp. Windchill Dew Point Humidity Wind Precip. Elev Updated Type
                   

Watches & Warnings

There are currently no watches in effect.